CYTZ

Toronto / City Centre Airport

Toronto, , Canada
METAR CYTZ 161700Z AUTO 14005KT 9SM CLR 27/22 A3003 RMK LTNG DIST S SW W SLP170 DENSITY ALT 1500FT
Observed Flight Rules
Aug-16 @ 17:00 UTC (35 minutes ago) Visual Flight Rules
Wind Visibility Clouds
140° at 5 knots 9 miles
  • Clear skies
Temperatures Readings
Current 27°C / 81°F
Dewpoint 22°C / 72°F
Humidity 74%
Altimeter 30.03" Hg
Pressure 1017 hPa
Elevation 77
METAR CYTZ 161700Z AUTO 14005KT 9SM CLR 27/22 A3003 RMK LTNG DIST S SW W SLP170 DENSITY ALT 1500FT
Observed Flight Rules
Aug-16 @ 17:00 UTC
(35 minutes ago)
VFR
Wind Visibility
140° at 5 knots 9 miles
Clouds
  • Clear skies
Temperature Dewpoint
27°C / 81°F 22°C / 72°F
Humidity Altimeter Pressure
74% 30.03" Hg 1017 hPa